createdAt,value
2023-03-25T00:04:51.258Z,7.03
2023-03-25T00:10:13.948Z,6.53
2023-03-25T00:15:36.224Z,6.60
2023-03-25T00:20:59.736Z,6.90
2023-03-25T00:26:22.126Z,5.10
2023-03-25T00:31:44.462Z,6.33
2023-03-25T00:37:06.755Z,6.90
2023-03-25T00:42:29.965Z,5.47
2023-03-25T00:47:52.263Z,6.20
2023-03-25T00:53:14.693Z,5.85
2023-03-25T00:58:36.961Z,5.90
2023-03-25T01:04:03.355Z,5.80
2023-03-25T01:15:01.308Z,6.07
2023-03-25T01:20:24.299Z,6.20
2023-03-25T01:25:46.749Z,6.97
2023-03-25T01:31:23.681Z,6.70
2023-03-25T01:36:47.973Z,6.70
2023-03-25T01:42:20.228Z,6.37
2023-03-25T01:47:42.666Z,6.73
2023-03-25T01:53:06.973Z,7.17
2023-03-25T01:58:32.330Z,6.50
2023-03-25T02:03:58.511Z,6.33
2023-03-25T02:09:24.319Z,6.53
2023-03-25T02:14:49.968Z,6.77
2023-03-25T02:20:42.775Z,6.93
2023-03-25T02:26:37.556Z,7.80
2023-03-25T02:32:15.736Z,7.30
2023-03-25T02:38:15.774Z,7.10
2023-03-25T02:44:01.552Z,7.07
2023-03-25T02:49:31.574Z,7.13
2023-03-25T02:54:57.733Z,6.87
2023-03-25T03:00:24.785Z,7.25
2023-03-25T03:05:50.929Z,6.92
2023-03-25T03:11:37.133Z,7.80
2023-03-25T03:17:30.922Z,8.27
2023-03-25T03:23:13.519Z,8.03
2023-03-25T03:28:59.796Z,7.83
2023-03-25T03:34:36.828Z,7.57
2023-03-25T03:40:01.523Z,8.20
2023-03-25T03:45:34.759Z,8.23
2023-03-25T03:51:18.052Z,8.83
2023-03-25T03:57:02.152Z,9.00
2023-03-25T04:02:47.995Z,8.80
2023-03-25T04:08:22.139Z,8.83
2023-03-25T04:13:48.958Z,9.53
2023-03-25T04:19:13.498Z,8.63
2023-03-25T04:24:37.883Z,9.30
2023-03-25T04:30:17.322Z,9.10
2023-03-25T04:35:40.840Z,9.47
2023-03-25T04:41:05.561Z,9.20
2023-03-25T04:46:30.241Z,9.40
2023-03-25T04:51:54.945Z,10.03
2023-03-25T04:57:17.577Z,9.67
2023-03-25T05:02:40.483Z,9.40
2023-03-25T05:08:11.843Z,9.57
2023-03-25T05:13:34.188Z,9.20
2023-03-25T05:18:56.540Z,9.47
2023-03-25T05:24:22.031Z,9.35
2023-03-25T05:29:44.843Z,9.20
2023-03-25T05:35:07.752Z,9.15
2023-03-25T05:40:30.231Z,8.90
2023-03-25T05:45:52.941Z,9.27
2023-03-25T05:51:18.446Z,8.40
2023-03-25T05:56:43.359Z,8.53
2023-03-25T06:02:08.020Z,8.83
2023-03-25T06:07:31.551Z,8.80
2023-03-25T06:12:54.496Z,8.75
2023-03-25T06:18:17.352Z,7.75
2023-03-25T06:23:40.204Z,7.58
2023-03-25T06:29:04.368Z,7.73
2023-03-25T06:34:26.745Z,6.53
2023-03-25T06:39:50.060Z,6.62
2023-03-25T06:45:14.149Z,6.23
2023-03-25T06:50:37.347Z,6.37
2023-03-25T06:56:02.346Z,5.55
2023-03-25T07:01:24.634Z,4.97
2023-03-25T07:06:46.938Z,5.15
2023-03-25T07:12:09.798Z,5.17
2023-03-25T07:17:33.272Z,4.92
2023-03-25T07:22:55.654Z,4.35
2023-03-25T07:28:18.129Z,4.50
2023-03-25T07:33:41.025Z,4.37
2023-03-25T07:39:03.626Z,4.12
2023-03-25T07:44:25.951Z,3.87
2023-03-25T07:49:49.882Z,4.08
2023-03-25T07:55:12.533Z,3.98
2023-03-25T08:00:37.901Z,4.08
2023-03-25T08:06:07.199Z,3.85
2023-03-25T08:11:29.586Z,4.30
2023-03-25T08:16:52.676Z,4.00
2023-03-25T08:22:15.368Z,4.17
2023-03-25T08:27:37.764Z,4.60
2023-03-25T08:33:00.221Z,4.03
2023-03-25T08:38:25.577Z,3.70
2023-03-25T08:43:48.423Z,3.77
2023-03-25T08:49:12.013Z,4.10
2023-03-25T08:54:34.851Z,3.85
2023-03-25T08:59:57.325Z,3.60
2023-03-25T09:05:20.287Z,3.50
2023-03-25T09:10:43.793Z,4.28
2023-03-25T09:16:06.082Z,3.77
2023-03-25T09:21:28.381Z,3.08
2023-03-25T09:26:51.614Z,3.85
2023-03-25T09:32:15.562Z,3.72
2023-03-25T09:37:38.293Z,3.70
2023-03-25T09:43:34.282Z,3.90
2023-03-25T09:49:00.726Z,4.28
2023-03-25T09:54:37.013Z,3.30
2023-03-25T10:00:04.477Z,3.42
2023-03-25T10:05:49.228Z,2.95
2023-03-25T10:11:41.460Z,3.37
2023-03-25T10:17:39.282Z,3.20
2023-03-25T10:23:33.452Z,3.10
2023-03-25T10:29:01.807Z,3.10
2023-03-25T10:34:36.200Z,3.50
2023-03-25T10:40:02.107Z,2.52
2023-03-25T10:45:36.069Z,6.17
2023-03-25T10:51:04.920Z,2.80
2023-03-25T10:56:43.613Z,2.60
2023-03-25T11:02:08.690Z,2.72
2023-03-25T11:07:47.721Z,2.62
2023-03-25T11:13:11.453Z,1.87
2023-03-25T11:18:45.985Z,2.20
2023-03-25T11:24:13.005Z,2.08
2023-03-25T11:29:38.861Z,2.40
2023-03-25T11:35:04.219Z,2.60
2023-03-25T11:40:29.981Z,2.70
2023-03-25T11:46:08.673Z,2.83
2023-03-25T11:51:35.768Z,2.37
2023-03-25T11:57:03.284Z,2.50
2023-03-25T12:02:40.005Z,2.10
2023-03-25T12:08:10.237Z,2.30
2023-03-25T12:19:29.248Z,2.05
2023-03-25T12:25:27.861Z,1.57
2023-03-25T12:31:34.076Z,2.17
2023-03-25T12:37:22.376Z,2.10
2023-03-25T12:43:04.840Z,2.40
2023-03-25T12:49:02.346Z,2.30
2023-03-25T12:54:41.690Z,1.40
2023-03-25T13:00:26.490Z,1.00
2023-03-25T13:06:20.426Z,0.70
2023-03-25T13:11:58.571Z,0.95
2023-03-25T13:17:46.463Z,1.15
2023-03-25T13:23:13.174Z,1.10
2023-03-25T13:28:40.018Z,1.30
2023-03-25T13:34:40.929Z,1.60
2023-03-25T13:40:20.212Z,1.70
2023-03-25T13:46:05.602Z,1.42
2023-03-25T13:51:29.260Z,1.37
2023-03-25T13:57:33.627Z,1.32
2023-03-25T14:03:30.776Z,1.02
2023-03-25T14:09:27.641Z,1.45
2023-03-25T14:14:58.352Z,1.40
2023-03-25T14:20:41.705Z,1.52
2023-03-25T14:26:10.777Z,1.82
2023-03-25T14:37:13.462Z,1.80
2023-03-25T14:42:48.940Z,2.00
2023-03-25T14:48:23.243Z,1.67
2023-03-25T14:53:39.477Z,1.80
2023-03-25T14:59:04.478Z,2.07
2023-03-25T15:04:38.771Z,2.10
2023-03-25T15:10:07.831Z,2.33
2023-03-25T15:16:02.566Z,2.53
2023-03-25T15:21:30.246Z,2.70
2023-03-25T15:27:02.714Z,2.42
2023-03-25T15:32:39.731Z,2.50
2023-03-25T15:38:16.998Z,2.20
2023-03-25T15:44:20.404Z,2.15
2023-03-25T15:50:07.008Z,1.67
2023-03-25T15:55:42.681Z,2.20
2023-03-25T16:01:10.169Z,1.82
2023-03-25T16:06:34.689Z,1.98
2023-03-25T16:11:59.637Z,2.05
2023-03-25T16:17:26.088Z,1.98
2023-03-25T16:22:50.363Z,2.05
2023-03-25T16:28:21.650Z,2.20
2023-03-25T16:33:47.440Z,1.95
2023-03-25T16:39:10.389Z,1.67
2023-03-25T16:44:37.915Z,1.75
2023-03-25T16:50:03.441Z,1.87
2023-03-25T16:55:59.340Z,1.82
2023-03-25T17:01:23.594Z,1.75
2023-03-25T17:06:56.350Z,2.10
2023-03-25T17:12:24.715Z,1.70
2023-03-25T17:18:02.872Z,1.67
2023-03-25T17:23:41.829Z,2.00
2023-03-25T17:29:18.540Z,2.30
2023-03-25T17:34:45.182Z,2.83
2023-03-25T17:40:13.144Z,2.63
2023-03-25T17:45:36.362Z,2.70
2023-03-25T17:51:07.258Z,2.83
2023-03-25T17:56:34.107Z,2.42
2023-03-25T18:01:56.655Z,3.10
2023-03-25T18:07:21.233Z,2.80
2023-03-25T18:12:43.780Z,2.42
2023-03-25T18:18:06.576Z,2.12
2023-03-25T18:23:30.642Z,2.20
2023-03-25T18:28:53.313Z,2.30
2023-03-25T18:34:15.771Z,2.33
2023-03-25T18:39:40.814Z,2.37
2023-03-25T18:45:03.155Z,3.00
2023-03-25T18:50:53.179Z,2.83
2023-03-25T18:56:19.034Z,2.77
2023-03-25T19:01:42.808Z,2.75
2023-03-25T19:07:05.120Z,3.08
2023-03-25T19:12:27.361Z,2.98
2023-03-25T19:17:50.639Z,3.35
2023-03-25T19:23:17.224Z,2.67
2023-03-25T19:28:42.074Z,2.33
2023-03-25T19:34:04.307Z,2.20
2023-03-25T19:39:26.568Z,1.98
2023-03-25T19:44:52.559Z,2.25
2023-03-25T19:50:21.618Z,2.20
2023-03-25T19:55:44.048Z,2.12
2023-03-25T20:01:07.088Z,2.50
2023-03-25T20:06:29.439Z,2.27
2023-03-25T20:11:51.714Z,2.40
2023-03-25T20:17:14.116Z,3.05
2023-03-25T20:22:36.421Z,2.55
2023-03-25T20:27:59.076Z,2.42
2023-03-25T20:33:21.896Z,2.33
2023-03-25T20:38:56.134Z,2.77
2023-03-25T20:44:08.915Z,2.30
2023-03-25T20:49:32.381Z,2.30
2023-03-25T20:54:56.144Z,2.17
2023-03-25T21:00:20.320Z,1.90
2023-03-25T21:05:44.712Z,2.00
2023-03-25T21:11:07.970Z,2.25
2023-03-25T21:16:31.417Z,1.72
2023-03-25T21:21:55.713Z,2.02
2023-03-25T21:27:18.213Z,2.70
2023-03-25T21:32:40.570Z,2.87
2023-03-25T21:38:04.000Z,2.52
2023-03-25T21:43:26.643Z,3.03
2023-03-25T21:48:50.863Z,2.90
2023-03-25T21:54:14.855Z,3.10
2023-03-25T21:59:37.134Z,3.00
2023-03-25T22:05:01.509Z,2.65
2023-03-25T22:10:24.722Z,3.42
2023-03-25T22:15:47.256Z,2.87
2023-03-25T22:21:29.768Z,3.33
2023-03-25T22:26:52.865Z,2.92
2023-03-25T22:32:15.118Z,2.90
2023-03-25T22:37:37.346Z,2.90
2023-03-25T22:42:59.595Z,2.87
2023-03-25T22:48:22.004Z,3.20
2023-03-25T22:53:45.729Z,2.67
2023-03-25T22:59:10.384Z,3.10
2023-03-25T23:04:32.796Z,2.60
2023-03-25T23:09:56.192Z,2.40
2023-03-25T23:15:18.707Z,2.80
2023-03-25T23:20:40.928Z,2.80
2023-03-25T23:26:22.375Z,2.60
2023-03-25T23:31:47.652Z,3.73
2023-03-25T23:37:10.634Z,2.80
2023-03-25T23:42:35.457Z,2.95
2023-03-25T23:47:57.327Z,3.52
2023-03-25T23:53:21.217Z,2.58
2023-03-25T23:58:43.537Z,3.15
